KHMZ

Bedford County Airport

Bedford, Pennsylvania, USA
METAR KHMZ 182335Z AUTO 03006KT 10SM CLR 23/17 A2990 RMK AO2 T02250173
Observed Flight Rules
Aug-18 @ 23:35 UTC (9 minutes ago) Visual Flight Rules
Wind Visibility Clouds
30° at 6 knots 10 miles
  • Clear skies
Temperatures Readings
Current 23°C / 73°F
Dewpoint 17°C / 63°F
Humidity 69%
Altimeter 29.9" Hg
Pressure 1013 hPa
Elevation 354
METAR KHMZ 182335Z AUTO 03006KT 10SM CLR 23/17 A2990 RMK AO2 T02250173
Observed Flight Rules
Aug-18 @ 23:35 UTC
(9 minutes ago)
VFR
Wind Visibility
30° at 6 knots 10 miles
Clouds
  • Clear skies
Temperature Dewpoint
23°C / 73°F 17°C / 63°F
Humidity Altimeter Pressure
69% 29.9" Hg 1013 hPa